Time;durP1;ratioP1;P1;durP2;ratioP2;P2;SDS_P1;SDS_P2;PMS_P1;PMS_P2;Temp;Humidity;BMP_temperature;BMP_pressure;BME280_temperature;BME280_humidity;BME280_pressure;Samples;Min_cycle;Max_cycle;Signal;HPM_P1;HPM_P2
2022/03/09 00:00:36;;;;;;;;;;;-1.00;99.90;;;;;;5056002;28;19913;-78
2022/03/09 00:03:01;;;;;;;;;;;-1.10;99.90;;;;;;5029575;28;20276;-78
2022/03/09 00:05:27;;;;;;;;;;;-1.10;99.90;;;;;;5053787;28;19924;-78
2022/03/09 00:07:53;;;;;;;;;;;-1.20;99.90;;;;;;5036722;28;19917;-78
2022/03/09 00:10:18;;;;;;;;;;;-1.20;99.90;;;;;;5037151;28;19923;-78
2022/03/09 00:12:44;;;;;;;;;;;-1.10;99.90;;;;;;5026003;28;19943;-78
2022/03/09 00:15:10;;;;;;;;;;;-1.20;99.90;;;;;;5054047;28;19943;-78
2022/03/09 00:17:35;;;;;;;;;;;-1.20;99.90;;;;;;5036424;28;19924;-78
2022/03/09 00:20:01;;;;;;;;;;;-1.20;99.90;;;;;;5045509;28;19917;-78
2022/03/09 00:22:27;;;;;;;;;;;-1.10;99.90;;;;;;5002035;28;20089;-78
2022/03/09 00:24:52;;;;;;;;;;;-1.10;99.90;;;;;;5036666;28;19912;-78
2022/03/09 00:27:18;;;;;;;;;;;-1.00;99.90;;;;;;5055255;28;19917;-78
2022/03/09 00:29:43;;;;;;;;;;;-1.10;99.90;;;;;;5054880;28;19934;-78
2022/03/09 00:32:09;;;;;;;;;;;-1.10;99.90;;;;;;5037463;28;19952;-78
2022/03/09 00:34:35;;;;;;;;;;;-1.10;99.90;;;;;;5035418;28;20294;-78
2022/03/09 00:37:01;;;;;;;;;;;-1.20;99.90;;;;;;5035884;28;20397;-78
2022/03/09 00:39:27;;;;;;;;;;;-1.20;99.90;;;;;;5036457;28;19916;-78
2022/03/09 00:41:52;;;;;;;;;;;-1.20;99.90;;;;;;5036585;28;19916;-78
2022/03/09 00:44:18;;;;;;;;;;;-1.20;99.90;;;;;;5051306;28;19921;-78
2022/03/09 00:46:46;;;;;;;;;;;-1.20;99.90;;;;;;5054583;28;19917;-78
2022/03/09 00:49:12;;;;;;;;;;;-1.20;99.90;;;;;;5036229;28;19912;-78
2022/03/09 00:51:37;;;;;;;;;;;-1.30;99.90;;;;;;5037506;28;19924;-78
2022/03/09 00:54:03;;;;;;;;;;;-1.30;99.90;;;;;;5031861;28;19913;-78
2022/03/09 00:56:28;;;;;;;;;;;-1.40;99.90;;;;;;5019481;28;19917;-80
2022/03/09 00:58:54;;;;;;;;;;;-1.40;99.90;;;;;;5054835;28;19917;-78
2022/03/09 01:01:20;;;;;;;;;;;-1.40;99.90;;;;;;5038547;28;19924;-78
2022/03/09 01:03:45;;;;;;;;;;;-1.40;99.90;;;;;;5047479;28;19916;-78
2022/03/09 01:06:11;;;;;;;;;;;-1.50;99.90;;;;;;5052129;28;19913;-78
2022/03/09 01:08:36;;;;;;;;;;;-1.40;99.90;;;;;;5049262;28;19932;-77
2022/03/09 01:11:03;;;;;;;;;;;-1.50;99.90;;;;;;5033971;28;20435;-77
2022/03/09 01:13:28;;;;;;;;;;;-1.50;99.90;;;;;;5037766;28;20015;-77
2022/03/09 01:15:54;;;;;;;;;;;-1.50;99.90;;;;;;5055736;28;20020;-77
2022/03/09 01:18:21;;;;;;;;;;;-1.50;99.90;;;;;;5037171;28;19913;-78
2022/03/09 01:20:46;;;;;;;;;;;-1.50;99.90;;;;;;5038924;28;19924;-78
2022/03/09 01:23:12;;;;;;;;;;;-1.60;99.90;;;;;;5038873;28;19956;-77
2022/03/09 01:25:37;;;;;;;;;;;-1.60;99.90;;;;;;5035040;28;19913;-78
2022/03/09 01:28:03;;;;;;;;;;;-1.60;99.90;;;;;;5021401;28;19917;-77
2022/03/09 01:30:29;;;;;;;;;;;-1.60;99.90;;;;;;5004204;28;19917;-77
2022/03/09 01:32:54;;;;;;;;;;;-1.70;99.90;;;;;;5055801;28;19966;-78
2022/03/09 01:35:20;;;;;;;;;;;-1.70;99.90;;;;;;5037587;28;19995;-78
2022/03/09 01:37:47;;;;;;;;;;;-1.70;99.90;;;;;;5036572;28;19924;-78
2022/03/09 01:40:14;;;;;;;;;;;-1.70;99.90;;;;;;5037133;28;19912;-77
2022/03/09 01:42:39;;;;;;;;;;;-1.70;99.90;;;;;;5055112;28;19916;-78
2022/03/09 01:45:06;;;;;;;;;;;-1.80;99.90;;;;;;5056182;28;19920;-77
2022/03/09 01:47:32;;;;;;;;;;;-1.70;99.90;;;;;;5054065;28;19917;-78
2022/03/09 01:49:57;;;;;;;;;;;-1.80;99.90;;;;;;5038459;28;20268;-77
2022/03/09 01:52:24;;;;;;;;;;;-1.80;99.90;;;;;;5022214;28;19988;-77
2022/03/09 01:54:51;;;;;;;;;;;-1.80;99.90;;;;;;5011450;28;19917;-77
2022/03/09 01:57:17;;;;;;;;;;;-1.80;99.90;;;;;;5044260;28;19925;-78
2022/03/09 01:59:43;;;;;;;;;;;-1.80;99.90;;;;;;5005941;28;20694;-77
2022/03/09 02:02:08;;;;;;;;;;;-1.80;99.90;;;;;;5053780;28;19921;-78
2022/03/09 02:04:34;;;;;;;;;;;-1.90;99.90;;;;;;5018939;28;19913;-77
2022/03/09 02:06:59;;;;;;;;;;;-1.90;99.90;;;;;;5054980;28;19963;-78
2022/03/09 02:12:19;;;;;;;;;;;-2.00;99.90;;;;;;5036100;28;19924;-78
2022/03/09 02:14:51;;;;;;;;;;;-2.00;99.90;;;;;;5020117;28;19913;-77
2022/03/09 02:17:18;;;;;;;;;;;-1.90;99.90;;;;;;5028244;28;20448;-78
2022/03/09 02:19:46;;;;;;;;;;;-1.90;99.90;;;;;;5053880;28;19912;-77
2022/03/09 02:22:24;;;;;;;;;;;-2.00;99.90;;;;;;5051892;28;19917;-78
2022/03/09 02:24:51;;;;;;;;;;;-2.00;99.90;;;;;;5039734;28;20386;-77
2022/03/09 02:27:17;;;;;;;;;;;-2.10;99.90;;;;;;5033757;28;20341;-78
2022/03/09 02:29:43;;;;;;;;;;;-2.10;99.90;;;;;;5007861;28;20050;-77
2022/03/09 02:32:09;;;;;;;;;;;-2.00;99.90;;;;;;5037869;28;19953;-77
2022/03/09 02:34:34;;;;;;;;;;;-2.00;99.90;;;;;;5056097;28;19920;-77
2022/03/09 02:37:00;;;;;;;;;;;-2.10;99.90;;;;;;5016823;28;20465;-77
2022/03/09 02:39:26;;;;;;;;;;;-2.10;99.90;;;;;;5031070;28;19923;-77
2022/03/09 02:41:51;;;;;;;;;;;-2.10;99.90;;;;;;5055367;28;19917;-78
2022/03/09 02:44:17;;;;;;;;;;;-2.10;99.90;;;;;;5037355;28;19924;-78
2022/03/09 02:46:43;;;;;;;;;;;-2.20;99.90;;;;;;5035740;28;20343;-78
2022/03/09 02:49:08;;;;;;;;;;;-2.20;99.90;;;;;;5053893;28;19913;-78
2022/03/09 02:51:34;;;;;;;;;;;-2.30;99.90;;;;;;5045884;28;19917;-78
2022/03/09 02:53:59;;;;;;;;;;;-2.30;99.90;;;;;;5039099;28;20329;-77
2022/03/09 02:56:25;;;;;;;;;;;-2.30;99.90;;;;;;5029642;28;20612;-78
2022/03/09 02:58:51;;;;;;;;;;;-2.20;99.90;;;;;;5028838;28;20365;-78
2022/03/09 03:01:16;;;;;;;;;;;-2.20;99.90;;;;;;5045633;28;19909;-77
2022/03/09 03:03:43;;;;;;;;;;;-2.30;99.90;;;;;;5035399;28;20287;-78
2022/03/09 03:06:09;;;;;;;;;;;-2.30;99.90;;;;;;5030349;28;19920;-78
2022/03/09 03:08:35;;;;;;;;;;;-2.40;99.90;;;;;;5049699;28;19920;-77
2022/03/09 03:11:00;;;;;;;;;;;-2.40;99.90;;;;;;5035344;28;19913;-78
2022/03/09 03:13:27;;;;;;;;;;;-2.40;99.90;;;;;;5048414;28;20389;-78
2022/03/09 03:15:53;;;;;;;;;;;-2.40;99.90;;;;;;5025451;28;19964;-77
2022/03/09 03:18:18;;;;;;;;;;;-2.40;99.90;;;;;;5017268;28;19920;-77
2022/03/09 03:20:44;;;;;;;;;;;-2.40;99.90;;;;;;5018159;28;20416;-78
2022/03/09 03:23:09;;;;;;;;;;;-2.40;99.90;;;;;;5034963;28;19916;-78
2022/03/09 03:25:35;;;;;;;;;;;-2.40;99.90;;;;;;5040560;28;19912;-77
2022/03/09 03:28:01;;;;;;;;;;;-2.40;99.90;;;;;;5031784;28;19976;-77
2022/03/09 03:30:26;;;;;;;;;;;-2.40;99.90;;;;;;5038648;28;19917;-77
2022/03/09 03:32:52;;;;;;;;;;;-2.40;99.90;;;;;;5022484;28;19948;-78
2022/03/09 03:35:18;;;;;;;;;;;-2.30;99.90;;;;;;5069044;23;19925;-78
2022/03/09 03:37:43;;;;;;;;;;;-2.20;99.90;;;;;;5048086;28;19978;-77
2022/03/09 03:40:09;;;;;;;;;;;-2.20;99.90;;;;;;5036449;28;19916;-77
2022/03/09 03:42:35;;;;;;;;;;;-2.10;99.90;;;;;;5049563;28;19917;-78
2022/03/09 03:45:00;;;;;;;;;;;-2.10;99.90;;;;;;5049583;28;19917;-77
2022/03/09 03:47:26;;;;;;;;;;;-2.20;99.90;;;;;;5033755;28;19917;-77
2022/03/09 03:49:52;;;;;;;;;;;-2.20;99.90;;;;;;5040968;28;20344;-77
2022/03/09 03:52:17;;;;;;;;;;;-2.20;99.90;;;;;;5033651;28;19964;-77
2022/03/09 03:54:43;;;;;;;;;;;-2.30;99.90;;;;;;5051156;28;19920;-76
2022/03/09 03:57:09;;;;;;;;;;;-2.30;99.90;;;;;;5050561;28;20290;-76
2022/03/09 03:59:34;;;;;;;;;;;-2.40;99.90;;;;;;5033266;28;19956;-76
2022/03/09 04:02:00;;;;;;;;;;;-2.40;99.90;;;;;;5025203;28;20363;-77
2022/03/09 04:04:25;;;;;;;;;;;-2.50;99.90;;;;;;5025138;28;19917;-78
2022/03/09 04:06:51;;;;;;;;;;;-2.50;99.90;;;;;;5046524;28;20657;-78
2022/03/09 04:09:17;;;;;;;;;;;-2.60;99.90;;;;;;5046633;28;19963;-78
2022/03/09 04:11:43;;;;;;;;;;;-2.60;99.90;;;;;;5040771;28;19918;-78
2022/03/09 04:14:08;;;;;;;;;;;-2.70;99.90;;;;;;5026803;28;20290;-78
2022/03/09 04:16:34;;;;;;;;;;;-2.70;99.90;;;;;;5045884;28;20357;-77
2022/03/09 04:19:00;;;;;;;;;;;-2.70;99.90;;;;;;5029849;28;19913;-78
2022/03/09 04:21:25;;;;;;;;;;;-2.60;99.90;;;;;;5050811;28;20007;-78
2022/03/09 04:23:51;;;;;;;;;;;-2.60;99.90;;;;;;5044696;28;20271;-78
2022/03/09 04:26:17;;;;;;;;;;;-2.70;99.90;;;;;;5044207;28;19913;-78
2022/03/09 04:28:42;;;;;;;;;;;-2.70;99.90;;;;;;5041879;28;20366;-78
2022/03/09 04:31:09;;;;;;;;;;;-2.80;99.90;;;;;;5049832;28;19956;-77
2022/03/09 04:33:34;;;;;;;;;;;-2.80;99.90;;;;;;5048601;28;19924;-78
2022/03/09 04:36:00;;;;;;;;;;;-2.80;99.90;;;;;;5044173;28;20398;-78
2022/03/09 04:38:26;;;;;;;;;;;-2.80;99.90;;;;;;5047027;28;19924;-78
2022/03/09 04:40:51;;;;;;;;;;;-2.80;99.90;;;;;;5036039;28;19924;-78
2022/03/09 04:43:17;;;;;;;;;;;-2.80;99.90;;;;;;5030659;28;19925;-78
2022/03/09 04:45:42;;;;;;;;;;;-2.80;99.90;;;;;;5028158;28;19917;-78
2022/03/09 04:48:08;;;;;;;;;;;-2.80;99.90;;;;;;5035158;28;19912;-78
2022/03/09 04:50:34;;;;;;;;;;;-2.80;99.90;;;;;;5051214;28;19923;-78
2022/03/09 04:53:00;;;;;;;;;;;-2.80;99.90;;;;;;5048488;28;19940;-78
2022/03/09 04:55:25;;;;;;;;;;;-2.80;99.90;;;;;;5038120;28;19917;-78
2022/03/09 04:57:51;;;;;;;;;;;-2.80;99.90;;;;;;5046230;28;20369;-78
2022/03/09 05:00:17;;;;;;;;;;;-2.90;99.90;;;;;;5028356;28;19967;-78
2022/03/09 05:02:43;;;;;;;;;;;-2.90;99.90;;;;;;5028949;28;19917;-77
2022/03/09 05:05:09;;;;;;;;;;;-2.90;99.90;;;;;;5050545;28;19927;-78
2022/03/09 05:07:38;;;;;;;;;;;-3.00;99.90;;;;;;5049835;28;19917;-79
2022/03/09 05:10:04;;;;;;;;;;;-3.00;99.90;;;;;;5053545;28;19913;-78
2022/03/09 05:12:30;;;;;;;;;;;-3.10;99.90;;;;;;5034133;28;19924;-78
2022/03/09 05:14:55;;;;;;;;;;;-3.10;99.90;;;;;;5050624;28;19920;-78
2022/03/09 05:17:21;;;;;;;;;;;-3.10;99.90;;;;;;5034533;28;20614;-79
2022/03/09 05:19:47;;;;;;;;;;;-3.10;99.90;;;;;;5036019;28;20428;-78
2022/03/09 05:22:12;;;;;;;;;;;-3.10;99.90;;;;;;5033374;28;19917;-78
2022/03/09 05:24:38;;;;;;;;;;;-3.10;99.90;;;;;;5047375;28;19924;-77
2022/03/09 05:27:04;;;;;;;;;;;-3.10;99.90;;;;;;5046917;28;19927;-78
2022/03/09 05:29:30;;;;;;;;;;;-3.10;99.90;;;;;;5051183;28;19917;-78
2022/03/09 05:31:55;;;;;;;;;;;-3.10;99.90;;;;;;5055399;28;19956;-78
2022/03/09 05:34:21;;;;;;;;;;;-3.10;99.90;;;;;;5030177;28;19924;-78
2022/03/09 05:36:46;;;;;;;;;;;-3.10;99.90;;;;;;5027893;28;19920;-77
2022/03/09 05:39:12;;;;;;;;;;;-3.10;99.90;;;;;;5049581;28;19917;-78
2022/03/09 05:41:37;;;;;;;;;;;-3.10;99.90;;;;;;5028658;28;19925;-77
2022/03/09 05:44:03;;;;;;;;;;;-3.00;99.90;;;;;;4999490;28;20015;-77
2022/03/09 05:46:30;;;;;;;;;;;-2.90;99.90;;;;;;5016418;28;19920;-77
2022/03/09 05:48:55;;;;;;;;;;;-3.00;99.90;;;;;;5033111;28;19917;-77
2022/03/09 05:51:21;;;;;;;;;;;-3.00;99.90;;;;;;5046216;28;20310;-77
2022/03/09 05:53:47;;;;;;;;;;;-3.00;99.90;;;;;;5034380;28;19917;-77
2022/03/09 05:56:12;;;;;;;;;;;-3.10;99.90;;;;;;5052727;28;19917;-77
2022/03/09 05:58:38;;;;;;;;;;;-3.10;99.90;;;;;;5030558;28;20370;-77
2022/03/09 06:01:04;;;;;;;;;;;-3.10;99.90;;;;;;5027291;28;20012;-77
2022/03/09 06:03:29;;;;;;;;;;;-3.00;99.90;;;;;;5038596;28;19924;-77
2022/03/09 06:05:55;;;;;;;;;;;-2.90;99.90;;;;;;5031601;28;19925;-77
2022/03/09 06:08:20;;;;;;;;;;;-2.90;99.90;;;;;;5030682;28;19917;-76
2022/03/09 06:10:46;;;;;;;;;;;-3.00;99.90;;;;;;5016877;28;19923;-77
2022/03/09 06:13:13;;;;;;;;;;;-3.00;99.90;;;;;;5044446;28;19913;-77
2022/03/09 06:15:38;;;;;;;;;;;-2.90;99.90;;;;;;5032923;28;20424;-77
2022/03/09 06:18:04;;;;;;;;;;;-2.90;99.90;;;;;;5049888;28;19924;-77
2022/03/09 06:20:31;;;;;;;;;;;-2.90;99.90;;;;;;5023781;28;19917;-77
2022/03/09 06:22:56;;;;;;;;;;;-2.80;99.90;;;;;;5052654;28;19917;-77
2022/03/09 06:25:22;;;;;;;;;;;-2.80;99.90;;;;;;5051101;28;19924;-77
2022/03/09 06:27:49;;;;;;;;;;;-2.80;99.90;;;;;;5052448;28;20435;-77
2022/03/09 06:30:15;;;;;;;;;;;-2.80;99.90;;;;;;5051097;28;19913;-77
2022/03/09 06:32:41;;;;;;;;;;;-2.80;99.90;;;;;;5044571;28;19916;-77
2022/03/09 06:35:07;;;;;;;;;;;-2.70;99.90;;;;;;5047208;28;19921;-77
2022/03/09 06:37:33;;;;;;;;;;;-2.70;99.90;;;;;;5047892;28;19920;-76
2022/03/09 06:39:59;;;;;;;;;;;-2.70;99.90;;;;;;5048891;28;19916;-77
2022/03/09 06:42:25;;;;;;;;;;;-2.60;99.90;;;;;;5035245;28;19998;-77
2022/03/09 06:44:51;;;;;;;;;;;-2.50;99.90;;;;;;5030784;28;20309;-78
2022/03/09 06:47:17;;;;;;;;;;;-2.30;99.90;;;;;;5050189;28;19916;-78
2022/03/09 06:49:42;;;;;;;;;;;-2.10;99.90;;;;;;5051229;28;19963;-77
2022/03/09 06:52:08;;;;;;;;;;;-1.70;99.90;;;;;;5047480;28;19924;-78
2022/03/09 06:54:34;;;;;;;;;;;-1.30;99.90;;;;;;5044697;28;19912;-77
2022/03/09 06:57:00;;;;;;;;;;;-0.90;99.90;;;;;;5052607;28;19917;-77
2022/03/09 06:59:25;;;;;;;;;;;-0.50;99.90;;;;;;5050374;28;19924;-78
2022/03/09 07:01:51;;;;;;;;;;;0.00;99.90;;;;;;5049072;28;19913;-77
2022/03/09 07:04:16;;;;;;;;;;;0.40;99.90;;;;;;5047510;28;20315;-78
2022/03/09 07:06:45;;;;;;;;;;;0.80;99.90;;;;;;5051866;28;20522;-77
2022/03/09 07:09:10;;;;;;;;;;;1.20;99.90;;;;;;5048539;28;19927;-78
2022/03/09 07:11:36;;;;;;;;;;;1.50;99.90;;;;;;5026227;28;19967;-78
2022/03/09 07:14:03;;;;;;;;;;;1.80;99.90;;;;;;5028405;28;19919;-77
2022/03/09 07:16:29;;;;;;;;;;;2.10;99.90;;;;;;5046400;28;20003;-78
2022/03/09 07:18:56;;;;;;;;;;;2.30;99.90;;;;;;5033939;28;19974;-78
2022/03/09 07:21:21;;;;;;;;;;;2.60;99.90;;;;;;5050882;28;20389;-77
2022/03/09 07:23:47;;;;;;;;;;;2.80;99.90;;;;;;5050471;28;20024;-77
2022/03/09 07:26:12;;;;;;;;;;;3.10;99.90;;;;;;5045045;28;19916;-78
2022/03/09 07:28:38;;;;;;;;;;;3.30;99.90;;;;;;5029743;28;19947;-78
2022/03/09 07:31:04;;;;;;;;;;;3.60;99.90;;;;;;5030859;28;20015;-78
2022/03/09 07:33:29;;;;;;;;;;;3.90;99.90;;;;;;5044322;28;19966;-77
2022/03/09 07:35:56;;;;;;;;;;;4.20;99.90;;;;;;5047989;28;19924;-77
2022/03/09 07:38:22;;;;;;;;;;;4.30;99.90;;;;;;5045820;28;19917;-78
2022/03/09 07:40:48;;;;;;;;;;;4.40;99.90;;;;;;5047289;28;19917;-77
2022/03/09 07:43:14;;;;;;;;;;;4.50;97.10;;;;;;5046945;28;19920;-78
2022/03/09 07:45:40;;;;;;;;;;;4.50;94.70;;;;;;5028827;28;19924;-78
2022/03/09 07:48:06;;;;;;;;;;;4.50;97.00;;;;;;5049923;28;19920;-78
2022/03/09 07:50:31;;;;;;;;;;;4.50;94.40;;;;;;5019786;28;20458;-77
2022/03/09 07:52:57;;;;;;;;;;;4.50;94.10;;;;;;5052838;28;19945;-78
2022/03/09 07:55:22;;;;;;;;;;;4.50;94.70;;;;;;5037083;28;19917;-76
2022/03/09 07:57:48;;;;;;;;;;;4.40;95.80;;;;;;5036627;28;20410;-78
2022/03/09 08:00:14;;;;;;;;;;;4.50;94.20;;;;;;5054310;28;19975;-78
2022/03/09 08:02:42;;;;;;;;;;;4.50;93.80;;;;;;5050986;28;19932;-79
2022/03/09 08:05:08;;;;;;;;;;;4.60;93.70;;;;;;5039073;28;19916;-76
2022/03/09 08:07:34;;;;;;;;;;;4.60;92.80;;;;;;5055525;28;19916;-78
2022/03/09 08:10:00;;;;;;;;;;;4.50;92.80;;;;;;5022781;28;19917;-78
2022/03/09 08:12:27;;;;;;;;;;;4.50;92.50;;;;;;5043026;28;19917;-78
2022/03/09 08:14:52;;;;;;;;;;;4.50;92.70;;;;;;5062823;28;20377;-78
2022/03/09 08:17:19;;;;;;;;;;;4.40;94.90;;;;;;5024485;28;19921;-78
2022/03/09 08:19:45;;;;;;;;;;;4.50;94.90;;;;;;5061837;28;20444;-77
2022/03/09 08:22:11;;;;;;;;;;;4.50;93.30;;;;;;5025881;28;19916;-78
2022/03/09 08:24:37;;;;;;;;;;;4.60;93.70;;;;;;5041884;28;19924;-79
2022/03/09 08:27:05;;;;;;;;;;;4.50;91.80;;;;;;5040466;28;20308;-77
2022/03/09 08:29:30;;;;;;;;;;;4.30;92.50;;;;;;5062625;28;19983;-77
2022/03/09 08:31:56;;;;;;;;;;;4.20;93.20;;;;;;5042727;28;19932;-76
2022/03/09 08:34:22;;;;;;;;;;;4.10;93.40;;;;;;5053573;28;19913;-77
2022/03/09 08:36:47;;;;;;;;;;;4.00;93.30;;;;;;5055582;28;19917;-76
2022/03/09 08:39:13;;;;;;;;;;;4.00;92.60;;;;;;5047561;28;19956;-78
2022/03/09 08:41:39;;;;;;;;;;;4.10;93.20;;;;;;5060534;28;19913;-77
2022/03/09 08:44:05;;;;;;;;;;;4.00;92.90;;;;;;5046068;28;20062;-78
2022/03/09 08:46:30;;;;;;;;;;;4.10;92.30;;;;;;5052891;28;19913;-76
2022/03/09 08:48:57;;;;;;;;;;;4.20;93.10;;;;;;5050652;28;20284;-76
2022/03/09 08:51:23;;;;;;;;;;;4.10;93.10;;;;;;5059786;28;19912;-77
2022/03/09 08:53:48;;;;;;;;;;;4.20;92.00;;;;;;5038550;28;19944;-75
2022/03/09 08:56:14;;;;;;;;;;;4.30;92.80;;;;;;5037798;28;19924;-76
2022/03/09 08:58:40;;;;;;;;;;;4.30;91.80;;;;;;5056661;28;19936;-77
2022/03/09 09:01:06;;;;;;;;;;;4.30;91.70;;;;;;5022253;28;19928;-77
2022/03/09 09:03:32;;;;;;;;;;;4.30;92.10;;;;;;5053204;28;19943;-77
2022/03/09 09:05:58;;;;;;;;;;;4.40;92.80;;;;;;5033914;28;19955;-78
2022/03/09 09:08:23;;;;;;;;;;;4.40;91.30;;;;;;5038947;28;19924;-78
2022/03/09 09:10:49;;;;;;;;;;;4.60;93.20;;;;;;5055567;28;19917;-77
2022/03/09 09:13:15;;;;;;;;;;;4.70;92.00;;;;;;5046235;28;19913;-75
2022/03/09 09:15:41;;;;;;;;;;;4.90;91.00;;;;;;5050611;28;19916;-77
2022/03/09 09:18:07;;;;;;;;;;;4.90;90.10;;;;;;5048593;28;20303;-77
2022/03/09 09:20:34;;;;;;;;;;;4.90;87.70;;;;;;5046877;28;19909;-77
2022/03/09 09:22:59;;;;;;;;;;;4.90;87.20;;;;;;5042449;28;19925;-77
2022/03/09 09:25:26;;;;;;;;;;;4.90;90.70;;;;;;5047063;28;19924;-76
2022/03/09 09:27:54;;;;;;;;;;;5.00;88.80;;;;;;5048959;28;19917;-77
2022/03/09 09:30:20;;;;;;;;;;;5.10;89.60;;;;;;5054147;28;19912;-75
2022/03/09 09:32:46;;;;;;;;;;;5.20;87.50;;;;;;5026196;28;20024;-75
2022/03/09 09:35:11;;;;;;;;;;;5.30;86.00;;;;;;5050737;28;20032;-75
2022/03/09 09:37:38;;;;;;;;;;;5.40;86.80;;;;;;5026021;28;19959;-76
2022/03/09 09:40:04;;;;;;;;;;;5.40;90.00;;;;;;5051785;28;20320;-76
2022/03/09 09:42:33;;;;;;;;;;;5.60;86.10;;;;;;5034957;28;19912;-75
2022/03/09 09:45:00;;;;;;;;;;;5.70;85.60;;;;;;5051612;28;19917;-76
2022/03/09 09:47:29;;;;;;;;;;;5.80;88.40;;;;;;5051052;28;20414;-76
2022/03/09 09:49:56;;;;;;;;;;;6.00;86.30;;;;;;5050442;28;19958;-76
2022/03/09 09:52:25;;;;;;;;;;;6.10;84.20;;;;;;5034802;28;19924;-76
2022/03/09 12:58:33;;;;;;;;;;;9.90;47.40;;;;;;5358943;22;1811795;-77
2022/03/09 13:01:08;;;;;;;;;;;10.00;48.40;;;;;;5059756;28;19921;-78
2022/03/09 13:03:34;;;;;;;;;;;10.00;48.80;;;;;;5049287;28;19952;-74
2022/03/09 13:06:04;;;;;;;;;;;10.10;48.30;;;;;;5076024;28;19917;-76
2022/03/09 13:08:36;;;;;;;;;;;10.10;48.00;;;;;;5049710;28;19917;-78
2022/03/09 13:11:04;;;;;;;;;;;10.10;49.10;;;;;;5074042;28;20583;-77
2022/03/09 13:13:31;;;;;;;;;;;10.20;47.90;;;;;;5053328;28;19924;-77
2022/03/09 13:15:59;;;;;;;;;;;10.20;50.40;;;;;;5069344;28;20293;-77
2022/03/09 13:18:32;;;;;;;;;;;10.30;50.70;;;;;;5055451;28;19920;-77
2022/03/09 13:21:00;;;;;;;;;;;10.40;50.00;;;;;;5072929;28;19917;-78
2022/03/09 13:23:26;;;;;;;;;;;10.40;46.00;;;;;;5069325;28;19912;-78
2022/03/09 13:25:52;;;;;;;;;;;10.40;46.60;;;;;;5040017;28;19913;-78
2022/03/09 13:28:25;;;;;;;;;;;10.40;47.10;;;;;;5054939;28;19918;-78
2022/03/09 13:30:54;;;;;;;;;;;10.60;51.40;;;;;;5049870;28;19913;-76
2022/03/09 13:33:23;;;;;;;;;;;10.70;47.70;;;;;;5068765;28;19913;-78
2022/03/09 13:35:50;;;;;;;;;;;10.90;47.80;;;;;;5074006;28;20007;-76
2022/03/09 13:38:21;;;;;;;;;;;11.00;45.20;;;;;;5070412;28;19916;-77
2022/03/09 13:40:46;;;;;;;;;;;11.00;47.40;;;;;;5070208;28;19963;-78
2022/03/09 13:43:12;;;;;;;;;;;11.00;47.00;;;;;;5055092;28;19912;-78
2022/03/09 13:45:40;;;;;;;;;;;11.10;47.30;;;;;;5068647;28;19916;-78
2022/03/09 13:48:07;;;;;;;;;;;11.10;45.40;;;;;;5054832;28;19916;-78
2022/03/09 13:50:34;;;;;;;;;;;11.30;48.30;;;;;;5072805;28;19942;-77
2022/03/09 13:53:09;;;;;;;;;;;11.50;47.20;;;;;;5069044;28;20263;-77
2022/03/09 13:55:42;;;;;;;;;;;11.50;46.00;;;;;;5055231;28;19913;-78
2022/03/09 13:58:13;;;;;;;;;;;11.60;43.70;;;;;;5070413;28;19925;-77
2022/03/09 14:00:40;;;;;;;;;;;11.50;44.00;;;;;;5069429;28;20054;-78
2022/03/09 14:03:10;;;;;;;;;;;11.40;44.00;;;;;;5057480;28;19977;-77
2022/03/09 14:05:37;;;;;;;;;;;11.20;44.10;;;;;;5066153;28;20013;-78
2022/03/09 14:08:03;;;;;;;;;;;11.00;44.70;;;;;;5063010;28;19917;-77
2022/03/09 14:10:32;;;;;;;;;;;10.80;44.30;;;;;;5065808;28;19931;-77
2022/03/09 14:13:07;;;;;;;;;;;10.70;44.80;;;;;;5041109;28;20047;-77
2022/03/09 14:15:33;;;;;;;;;;;10.60;44.60;;;;;;5067088;28;19916;-78
2022/03/09 14:18:00;;;;;;;;;;;10.50;47.30;;;;;;5074200;28;19920;-77
2022/03/09 14:20:26;;;;;;;;;;;10.40;45.80;;;;;;5066746;28;19958;-76
2022/03/09 14:22:52;;;;;;;;;;;10.40;45.80;;;;;;5059026;28;19920;-76
2022/03/09 14:25:18;;;;;;;;;;;10.40;45.00;;;;;;5073073;28;19913;-78
2022/03/09 14:27:44;;;;;;;;;;;10.30;45.30;;;;;;5071189;28;19923;-76
2022/03/09 14:30:11;;;;;;;;;;;10.30;46.80;;;;;;5055488;28;19920;-76
2022/03/09 14:32:37;;;;;;;;;;;10.30;46.90;;;;;;5060550;28;19923;-77
2022/03/09 14:35:04;;;;;;;;;;;10.40;46.90;;;;;;5065609;28;19913;-77
2022/03/09 14:37:29;;;;;;;;;;;10.30;46.90;;;;;;5053949;28;19921;-77
2022/03/09 14:39:55;;;;;;;;;;;10.30;45.70;;;;;;5063233;28;20392;-77
2022/03/09 14:42:21;;;;;;;;;;;10.20;46.50;;;;;;5066503;28;20329;-76
2022/03/09 14:44:46;;;;;;;;;;;10.30;46.50;;;;;;5053391;28;20428;-77
2022/03/09 14:47:12;;;;;;;;;;;10.30;45.70;;;;;;5051315;28;20544;-78
2022/03/09 14:49:38;;;;;;;;;;;10.30;45.90;;;;;;5052486;28;19927;-77
2022/03/09 14:52:08;;;;;;;;;;;10.30;45.80;;;;;;5047916;28;19917;-77
2022/03/09 14:54:34;;;;;;;;;;;10.30;46.20;;;;;;5071154;28;19921;-77
2022/03/09 14:56:59;;;;;;;;;;;10.30;46.70;;;;;;5066748;28;20009;-77
2022/03/09 14:59:26;;;;;;;;;;;10.30;45.30;;;;;;5067986;28;19932;-76
2022/03/09 15:01:55;;;;;;;;;;;10.30;46.40;;;;;;5054638;28;19960;-77
2022/03/09 15:04:24;;;;;;;;;;;10.30;46.70;;;;;;5068243;28;19913;-78
2022/03/09 15:06:49;;;;;;;;;;;10.30;46.40;;;;;;5066998;28;20299;-77
2022/03/09 15:09:16;;;;;;;;;;;10.20;47.30;;;;;;5037085;28;19920;-78
2022/03/09 15:11:42;;;;;;;;;;;10.20;47.50;;;;;;5060580;28;19923;-77
2022/03/09 15:14:08;;;;;;;;;;;10.10;47.70;;;;;;5065006;28;19948;-76
2022/03/09 15:16:34;;;;;;;;;;;10.00;47.50;;;;;;5067414;28;19939;-77
2022/03/09 15:19:00;;;;;;;;;;;10.00;48.70;;;;;;5054791;28;19916;-75
2022/03/09 15:21:26;;;;;;;;;;;10.10;48.80;;;;;;5066249;28;19999;-76
2022/03/09 15:23:52;;;;;;;;;;;10.00;49.20;;;;;;5061041;28;20012;-76
2022/03/09 15:26:18;;;;;;;;;;;9.90;50.00;;;;;;5050249;28;19939;-77
2022/03/09 15:28:43;;;;;;;;;;;9.90;50.10;;;;;;5066001;28;19920;-78
2022/03/09 15:31:09;;;;;;;;;;;9.80;50.50;;;;;;5028513;28;20011;-78
2022/03/09 15:33:35;;;;;;;;;;;9.80;50.30;;;;;;5047396;28;20282;-78
2022/03/09 15:36:01;;;;;;;;;;;9.70;50.20;;;;;;5067023;23;20019;-76
2022/03/09 15:38:27;;;;;;;;;;;9.80;50.60;;;;;;5044145;28;20019;-77
2022/03/09 15:40:52;;;;;;;;;;;9.80;50.10;;;;;;5030352;28;19979;-76
2022/03/09 15:43:18;;;;;;;;;;;9.80;48.80;;;;;;5046181;28;19917;-76
2022/03/09 15:45:44;;;;;;;;;;;10.00;49.00;;;;;;5039109;28;19924;-76
2022/03/09 15:48:10;;;;;;;;;;;9.90;49.60;;;;;;5047783;28;19913;-76
2022/03/09 15:50:36;;;;;;;;;;;9.90;50.20;;;;;;5046976;28;19921;-76
2022/03/09 15:53:02;;;;;;;;;;;9.90;50.30;;;;;;5043777;28;19978;-76
2022/03/09 15:55:27;;;;;;;;;;;9.90;49.90;;;;;;5022338;28;19921;-75
2022/03/09 15:57:54;;;;;;;;;;;10.00;48.40;;;;;;5027686;28;19928;-75
2022/03/09 16:00:20;;;;;;;;;;;10.00;48.90;;;;;;5044192;28;19942;-75
2022/03/09 16:02:46;;;;;;;;;;;10.00;48.70;;;;;;5047893;28;20012;-75
2022/03/09 16:05:14;;;;;;;;;;;10.00;48.90;;;;;;5031020;28;19913;-75
2022/03/09 16:07:41;;;;;;;;;;;10.00;50.20;;;;;;5047370;28;19920;-76
2022/03/09 16:10:07;;;;;;;;;;;9.90;49.50;;;;;;5028000;28;19936;-76
2022/03/09 16:12:34;;;;;;;;;;;9.80;49.80;;;;;;5039017;28;19962;-75
2022/03/09 16:14:59;;;;;;;;;;;9.70;50.20;;;;;;5039209;28;19967;-76
2022/03/09 16:17:25;;;;;;;;;;;9.60;49.90;;;;;;5046620;28;19968;-76
2022/03/09 16:19:51;;;;;;;;;;;9.50;50.40;;;;;;5048670;28;20675;-76
2022/03/09 16:22:16;;;;;;;;;;;9.40;50.30;;;;;;5038417;28;19964;-76
2022/03/09 16:24:42;;;;;;;;;;;9.30;51.10;;;;;;5040130;28;19909;-76
2022/03/09 16:27:08;;;;;;;;;;;9.10;51.70;;;;;;5046639;28;20007;-76
2022/03/09 16:29:33;;;;;;;;;;;9.10;51.40;;;;;;5030345;28;19916;-76
2022/03/09 16:32:00;;;;;;;;;;;9.00;51.00;;;;;;5047107;28;20375;-76
2022/03/09 16:34:26;;;;;;;;;;;8.90;51.40;;;;;;5047189;28;20436;-76
2022/03/09 16:36:52;;;;;;;;;;;8.80;52.20;;;;;;5050761;28;19921;-76
2022/03/09 16:39:17;;;;;;;;;;;8.70;52.30;;;;;;5042471;28;19917;-76
2022/03/09 16:41:43;;;;;;;;;;;8.60;52.60;;;;;;5047751;28;19923;-76
2022/03/09 16:44:09;;;;;;;;;;;8.50;53.00;;;;;;5051707;28;19921;-76
2022/03/09 16:46:35;;;;;;;;;;;8.40;53.20;;;;;;5048734;28;20238;-76
2022/03/09 16:49:03;;;;;;;;;;;8.40;55.00;;;;;;5031376;28;19963;-75
2022/03/09 16:51:30;;;;;;;;;;;8.40;55.90;;;;;;5018267;28;19916;-76
2022/03/09 16:53:56;;;;;;;;;;;8.40;55.90;;;;;;5040493;28;19917;-76
2022/03/09 16:56:22;;;;;;;;;;;8.40;55.20;;;;;;5049039;28;20321;-76
2022/03/09 16:58:47;;;;;;;;;;;8.30;55.60;;;;;;5048641;28;19916;-75
2022/03/09 17:01:13;;;;;;;;;;;8.30;55.90;;;;;;5047959;28;19913;-76
2022/03/09 17:03:39;;;;;;;;;;;8.20;55.90;;;;;;5034142;28;19917;-76
2022/03/09 17:06:04;;;;;;;;;;;8.10;55.70;;;;;;5050618;28;19920;-75
2022/03/09 17:08:30;;;;;;;;;;;8.00;55.70;;;;;;5034237;28;20398;-76
2022/03/09 17:10:55;;;;;;;;;;;7.80;56.20;;;;;;5049255;28;20286;-75
2022/03/09 17:13:22;;;;;;;;;;;7.70;56.10;;;;;;5044025;28;19917;-76
2022/03/09 17:15:48;;;;;;;;;;;7.50;56.10;;;;;;5036155;28;19924;-76
2022/03/09 17:18:15;;;;;;;;;;;7.40;56.30;;;;;;5048738;28;19917;-76
2022/03/09 17:20:40;;;;;;;;;;;7.30;56.80;;;;;;5051199;28;19971;-76